ENQC

Troll C Platform Heliport

Norway
METAR ENQC 190450Z AUTO 17025KT 9999NDV BKN009/// BKN062/// 13/12 Q0994 W///S5
Observed Flight Rules
Sep-19 @ 04:50 UTC (49 minutes ago)
Wind Clouds
170° at 25 knots
  • Broken at 900' AGL
  • Broken at 6,200' AGL
Temperatures Readings
Current 13°C / 55°F
Dewpoint 12°C / 54°F
Humidity 94%
Altimeter 29.35" Hg
Pressure 994 hPa
Elevation 20
METAR ENQC 190450Z AUTO 17025KT 9999NDV BKN009/// BKN062/// 13/12 Q0994 W///S5
Observed Flight Rules
Sep-19 @ 04:50 UTC
(49 minutes ago)
Wind
170° at 25 knots
Clouds
  • Broken at 900' AGL
  • Broken at 6,200' AGL
Temperature Dewpoint
13°C / 55°F 12°C / 54°F
Humidity Altimeter Pressure
94% 29.35" Hg 994 hPa